Alleghenyville, Pennsylvania
Current Conditions -  °F | °C
As of 8:03 AM on Tuesday 21 Oct 2014 (Local Time) from KRDG Reporting Station
Few Clouds Few Clouds  
Wind Chill: 51°   Ceiling: Unl
Heat Index: 51°   Visibility: 8mi
Dew Point: 49°   Wind: 0mph
Humidity: 92%   Direction: NA
Pressure: 29.87"   Gusts: NA
Location:  40.2411°N, 75.9752°W
Report Text: KRDG 211203Z 00000KT 8SM R36/5000VP6000FT FEW070 11/09 A2987 RMK AO2 T01060094
Loading
Personal Weather Stations






























Interactive Weather Map New forecast layout! Learn more

10-Day Weather Forecast

Advertisements
Track Severe Weather on mobile